Time;durP1;ratioP1;P1;durP2;ratioP2;P2;SDS_P1;SDS_P2;PMS_P1;PMS_P2;Temp;Humidity;BMP_temperature;BMP_pressure;BME280_temperature;BME280_humidity;BME280_pressure;Samples;Min_cycle;Max_cycle;Signal;HPM_P1;HPM_P2
2023/11/19 00:01:20;;;;;;;17.43;3.77;;;13.40;99.90;;;;;;5040845;28;20197;-55
2023/11/19 00:03:49;;;;;;;13.93;3.57;;;13.40;99.90;;;;;;5048459;28;20214;-56
2023/11/19 00:06:18;;;;;;;10.53;3.63;;;13.40;99.90;;;;;;5045226;28;20229;-59
2023/11/19 00:08:48;;;;;;;16.47;3.70;;;13.50;99.90;;;;;;5047103;28;20220;-54
2023/11/19 00:11:16;;;;;;;10.27;3.60;;;13.40;99.90;;;;;;5047455;28;20213;-54
2023/11/19 00:13:44;;;;;;;16.80;4.60;;;13.40;99.90;;;;;;5042027;28;20230;-54
2023/11/19 00:16:13;;;;;;;16.90;3.63;;;13.40;99.90;;;;;;5050187;28;20196;-56
2023/11/19 00:18:41;;;;;;;21.47;4.00;;;13.40;99.90;;;;;;5051829;28;20304;-55
2023/11/19 00:21:10;;;;;;;24.40;3.73;;;13.40;99.90;;;;;;5039600;28;20263;-55
2023/11/19 00:23:38;;;;;;;17.10;4.00;;;13.40;99.90;;;;;;5052243;28;20224;-56
2023/11/19 00:26:08;;;;;;;22.40;3.70;;;13.40;99.90;;;;;;5048013;28;20572;-55
2023/11/19 00:28:38;;;;;;;22.87;4.23;;;13.40;99.90;;;;;;5053218;28;20197;-55
2023/11/19 00:31:07;;;;;;;21.37;4.23;;;13.40;99.90;;;;;;5049407;28;20224;-56
2023/11/19 00:33:37;;;;;;;18.90;3.90;;;13.40;99.90;;;;;;5052120;28;20218;-55
2023/11/19 00:36:20;;;;;;;13.10;3.80;;;13.40;99.90;;;;;;5050020;28;20669;-54
2023/11/19 00:38:48;;;;;;;27.57;4.57;;;13.40;99.90;;;;;;5038807;28;20224;-54
2023/11/19 00:41:18;;;;;;;19.77;3.90;;;13.40;99.90;;;;;;5041464;28;20233;-54
2023/11/19 00:43:46;;;;;;;23.63;4.50;;;13.40;99.90;;;;;;5039817;28;20190;-54
2023/11/19 00:46:14;;;;;;;20.60;4.10;;;13.30;99.90;;;;;;5047783;28;20192;-55
2023/11/19 00:48:42;;;;;;;21.07;3.90;;;13.40;99.90;;;;;;5052126;28;20711;-54
2023/11/19 00:51:13;;;;;;;17.03;4.43;;;13.30;99.90;;;;;;5050162;28;20216;-55
2023/11/19 00:53:41;;;;;;;18.83;4.50;;;13.20;99.90;;;;;;5040791;28;20225;-55
2023/11/19 00:56:12;;;;;;;25.53;4.60;;;13.30;99.90;;;;;;5044224;28;20225;-54
2023/11/19 00:58:42;;;;;;;24.13;4.73;;;13.30;99.90;;;;;;5046133;28;20193;-55
2023/11/19 01:01:10;;;;;;;23.50;4.83;;;13.20;99.90;;;;;;5048617;28;20225;-52
2023/11/19 01:03:38;;;;;;;28.10;5.97;;;13.30;99.90;;;;;;5045636;28;20228;-53
2023/11/19 01:06:08;;;;;;;32.60;6.00;;;13.30;99.90;;;;;;5046242;28;20229;-54
2023/11/19 01:08:36;;;;;;;29.13;6.67;;;13.30;99.90;;;;;;5042847;28;20225;-56
2023/11/19 01:11:05;;;;;;;27.43;5.80;;;13.30;99.90;;;;;;5048499;28;20223;-55
2023/11/19 01:13:33;;;;;;;38.47;5.57;;;13.30;99.90;;;;;;5047313;28;20299;-55
2023/11/19 01:16:03;;;;;;;27.83;4.90;;;13.30;99.90;;;;;;5049219;28;20240;-55
2023/11/19 01:18:31;;;;;;;26.30;4.17;;;13.30;99.90;;;;;;5046788;28;20216;-56
2023/11/19 01:20:59;;;;;;;33.50;4.80;;;13.20;99.90;;;;;;5047415;28;20217;-55
2023/11/19 01:23:27;;;;;;;29.20;5.17;;;13.10;99.90;;;;;;5044772;28;20229;-55
2023/11/19 01:25:56;;;;;;;26.60;5.23;;;13.10;99.90;;;;;;5049493;28;20193;-54
2023/11/19 01:28:24;;;;;;;25.43;4.53;;;13.00;99.90;;;;;;5053279;28;20697;-55
2023/11/19 01:30:52;;;;;;;25.50;4.10;;;13.00;99.90;;;;;;5047391;28;20225;-56
2023/11/19 01:33:23;;;;;;;28.37;4.17;;;13.00;99.90;;;;;;5049472;28;20315;-56
2023/11/19 01:35:51;;;;;;;26.43;4.27;;;13.00;99.90;;;;;;5048852;28;20303;-56
2023/11/19 01:38:20;;;;;;;23.87;4.27;;;13.00;99.90;;;;;;5047352;28;20230;-54
2023/11/19 01:40:48;;;;;;;20.00;4.10;;;13.00;99.90;;;;;;5041776;28;20276;-54
2023/11/19 01:43:34;;;;;;;22.03;4.83;;;13.10;99.90;;;;;;5048267;28;20648;-56
2023/11/19 01:46:02;;;;;;;24.27;4.20;;;13.10;99.90;;;;;;5045690;28;20308;-55
2023/11/19 01:48:34;;;;;;;26.17;4.30;;;13.00;99.90;;;;;;5048377;28;20714;-54
2023/11/19 01:51:03;;;;;;;34.03;4.70;;;13.00;99.90;;;;;;5048803;28;20221;-55
2023/11/19 01:53:33;;;;;;;23.67;3.90;;;13.00;99.90;;;;;;5051833;28;20591;-54
2023/11/19 01:56:02;;;;;;;27.07;4.63;;;13.00;99.90;;;;;;5045817;28;20238;-56
2023/11/19 01:58:30;;;;;;;20.30;4.13;;;13.00;99.90;;;;;;5047482;28;20213;-54
2023/11/19 02:00:59;;;;;;;25.00;4.23;;;13.00;99.90;;;;;;5054229;28;20312;-54
2023/11/19 02:03:30;;;;;;;24.90;4.40;;;13.00;99.90;;;;;;5045358;28;20255;-54
2023/11/19 02:06:00;;;;;;;32.33;4.90;;;12.90;99.90;;;;;;5052632;28;20263;-53
2023/11/19 02:08:29;;;;;;;33.43;4.60;;;12.90;99.90;;;;;;5047940;28;20548;-54
2023/11/19 02:10:58;;;;;;;27.80;4.70;;;12.90;99.90;;;;;;5053904;28;20668;-55
2023/11/19 02:13:27;;;;;;;31.30;4.57;;;12.80;99.90;;;;;;5052079;28;20214;-51
2023/11/19 02:15:55;;;;;;;28.43;4.50;;;12.80;99.90;;;;;;5047554;28;20234;-55
2023/11/19 02:18:27;;;;;;;32.90;5.07;;;12.80;99.90;;;;;;5050307;28;20229;-54
2023/11/19 02:20:56;;;;;;;30.67;4.80;;;12.70;99.90;;;;;;5049192;28;20838;-55
2023/11/19 02:23:28;;;;;;;32.57;5.93;;;12.70;99.90;;;;;;5042302;28;20717;-52
2023/11/19 02:26:05;;;;;;;41.63;5.27;;;12.70;99.90;;;;;;5055022;28;20208;-54
2023/11/19 02:28:36;;;;;;;47.07;5.60;;;12.80;99.90;;;;;;5051670;28;20626;-53
2023/11/19 02:31:09;;;;;;;36.33;5.47;;;12.80;99.90;;;;;;5052490;28;20324;-53
2023/11/19 02:33:38;;;;;;;34.87;5.57;;;12.80;99.90;;;;;;5048309;28;20236;-55
2023/11/19 02:36:07;;;;;;;39.10;5.43;;;12.80;99.90;;;;;;5042659;28;20233;-53
2023/11/19 02:38:36;;;;;;;29.63;5.77;;;12.70;99.90;;;;;;5057870;28;20237;-55
2023/11/19 02:41:06;;;;;;;31.93;4.57;;;12.60;99.90;;;;;;5050461;28;20224;-55
2023/11/19 02:43:36;;;;;;;27.87;4.60;;;12.50;99.90;;;;;;5050202;28;20781;-54
2023/11/19 02:46:07;;;;;;;34.53;5.17;;;12.40;99.90;;;;;;5048882;28;20618;-54
2023/11/19 02:48:38;;;;;;;33.43;5.73;;;12.40;99.90;;;;;;5045568;28;20576;-56
2023/11/19 02:51:09;;;;;;;31.70;4.60;;;12.40;99.90;;;;;;5052184;28;20602;-55
2023/11/19 02:53:39;;;;;;;34.43;5.50;;;12.40;99.90;;;;;;5048838;28;20259;-52
2023/11/19 02:56:19;;;;;;;29.53;4.93;;;12.40;99.90;;;;;;5042657;28;20707;-54
2023/11/19 02:58:49;;;;;;;34.07;4.73;;;12.40;99.90;;;;;;5048523;28;20192;-55
2023/11/19 03:01:29;;;;;;;29.43;4.40;;;12.40;99.90;;;;;;5049858;28;20200;-56
2023/11/19 03:03:58;;;;;;;23.63;4.13;;;12.30;99.90;;;;;;5054008;28;20220;-54
2023/11/19 03:06:28;;;;;;;36.47;4.80;;;12.20;99.90;;;;;;5049247;28;20240;-54
2023/11/19 03:08:57;;;;;;;38.50;5.40;;;12.20;99.90;;;;;;5046451;28;20704;-53
2023/11/19 03:11:25;;;;;;;34.67;5.07;;;12.20;99.90;;;;;;5047605;28;20231;-53
2023/11/19 03:13:55;;;;;;;27.67;4.40;;;12.30;99.90;;;;;;5050129;28;20215;-54
2023/11/19 03:16:23;;;;;;;26.77;4.97;;;12.30;99.90;;;;;;5043789;28;20204;-54
2023/11/19 03:18:51;;;;;;;31.90;4.63;;;12.30;99.90;;;;;;5051234;28;20370;-55
2023/11/19 03:21:20;;;;;;;31.33;5.13;;;12.30;99.90;;;;;;5048223;28;20220;-53
2023/11/19 03:23:48;;;;;;;32.50;4.60;;;12.30;99.90;;;;;;5044908;28;20222;-54
2023/11/19 03:26:16;;;;;;;22.80;4.10;;;12.30;99.90;;;;;;5050930;28;20224;-55
2023/11/19 03:28:44;;;;;;;26.27;4.80;;;12.30;99.90;;;;;;5046549;28;20189;-54
2023/11/19 03:31:14;;;;;;;24.93;4.80;;;12.30;99.90;;;;;;5050014;28;20559;-54
2023/11/19 03:33:42;;;;;;;24.07;3.90;;;12.20;99.90;;;;;;5044127;28;20290;-55
2023/11/19 03:36:10;;;;;;;31.53;5.33;;;12.20;99.90;;;;;;5049948;28;20687;-54
2023/11/19 03:38:38;;;;;;;31.80;4.80;;;12.20;99.90;;;;;;5047314;28;20216;-56
2023/11/19 03:41:12;;;;;;;41.03;5.87;;;12.20;99.90;;;;;;5049341;28;20226;-55
2023/11/19 03:43:40;;;;;;;27.43;4.63;;;12.10;99.90;;;;;;5049989;28;20607;-53
2023/11/19 03:46:19;;;;;;;28.47;4.97;;;12.10;99.90;;;;;;5052727;28;20216;-55
2023/11/19 03:48:49;;;;;;;24.20;4.20;;;12.10;99.90;;;;;;5040547;28;20311;-55
2023/11/19 03:51:17;;;;;;;28.70;4.73;;;12.10;99.90;;;;;;5047391;28;20223;-55
2023/11/19 03:53:47;;;;;;;31.57;4.60;;;12.10;99.90;;;;;;5043021;28;20308;-56
2023/11/19 03:56:15;;;;;;;24.93;4.33;;;12.10;99.90;;;;;;5040571;28;20217;-56
2023/11/19 03:58:43;;;;;;;30.30;4.83;;;12.10;99.90;;;;;;5047111;28;20192;-55
2023/11/19 04:01:14;;;;;;;37.93;5.40;;;12.20;99.90;;;;;;5049313;28;20564;-55
2023/11/19 04:03:44;;;;;;;31.27;4.60;;;12.20;99.90;;;;;;5039531;28;20251;-54
2023/11/19 04:06:15;;;;;;;30.13;5.20;;;12.20;99.90;;;;;;5046424;28;20648;-55
2023/11/19 04:08:44;;;;;;;28.60;5.87;;;12.20;99.90;;;;;;5053505;28;20697;-53
2023/11/19 04:11:12;;;;;;;42.87;5.77;;;12.30;99.90;;;;;;5049330;28;20244;-54
2023/11/19 04:13:41;;;;;;;29.10;4.70;;;12.20;99.90;;;;;;5051671;28;20201;-53
2023/11/19 04:16:09;;;;;;;24.03;4.83;;;12.30;99.90;;;;;;5049718;28;20308;-54
2023/11/19 04:18:38;;;;;;;33.87;5.70;;;12.30;99.90;;;;;;5045353;28;20255;-53
2023/11/19 04:21:09;;;;;;;31.47;5.83;;;12.30;99.90;;;;;;5049109;28;20232;-52
2023/11/19 04:23:37;;;;;;;33.03;5.60;;;12.30;99.90;;;;;;5050502;28;20252;-54
2023/11/19 04:26:06;;;;;;;37.60;5.33;;;12.30;99.90;;;;;;5040641;28;20232;-54
2023/11/19 04:28:37;;;;;;;31.23;5.43;;;12.20;99.90;;;;;;5044090;28;20193;-53
2023/11/19 04:31:06;;;;;;;29.73;5.70;;;12.20;99.90;;;;;;5049334;28;20318;-54
2023/11/19 04:33:34;;;;;;;31.77;4.50;;;12.10;99.90;;;;;;5046256;28;20330;-54
2023/11/19 04:36:03;;;;;;;34.37;5.60;;;12.10;99.90;;;;;;5048869;28;20316;-53
2023/11/19 04:38:33;;;;;;;40.30;5.10;;;12.10;99.90;;;;;;5046318;28;20231;-54
2023/11/19 04:41:02;;;;;;;29.43;5.20;;;12.10;99.90;;;;;;5045070;28;20233;-54
2023/11/19 04:43:33;;;;;;;32.00;5.47;;;12.10;99.90;;;;;;5043132;28;20197;-55
2023/11/19 04:46:04;;;;;;;46.83;6.20;;;12.10;99.90;;;;;;5051519;28;20231;-53
2023/11/19 04:48:32;;;;;;;31.33;4.70;;;12.10;99.90;;;;;;5050448;28;20217;-52
2023/11/19 04:51:10;;;;;;;31.83;4.83;;;12.10;99.90;;;;;;5038703;28;20220;-56
2023/11/19 04:53:39;;;;;;;37.73;5.63;;;12.10;99.90;;;;;;5045946;28;20844;-55
2023/11/19 04:56:11;;;;;;;40.43;5.83;;;12.00;99.90;;;;;;5041621;28;20232;-55
2023/11/19 04:58:39;;;;;;;34.67;5.27;;;12.10;99.90;;;;;;5049390;28;20193;-53
2023/11/19 05:01:16;;;;;;;35.97;4.67;;;12.00;99.90;;;;;;5059467;28;20212;-55
2023/11/19 05:03:45;;;;;;;34.80;5.67;;;11.90;99.90;;;;;;5049347;28;20220;-53
2023/11/19 05:06:13;;;;;;;34.07;5.40;;;11.90;99.90;;;;;;5051780;28;20216;-55
2023/11/19 05:08:43;;;;;;;41.07;6.10;;;11.80;99.90;;;;;;5050087;28;20228;-54
2023/11/19 05:11:13;;;;;;;40.30;5.70;;;11.70;99.90;;;;;;5044704;28;20247;-54
2023/11/19 05:13:42;;;;;;;24.97;4.33;;;11.80;99.90;;;;;;5042733;28;20524;-53
2023/11/19 05:16:10;;;;;;;35.23;6.47;;;11.70;99.90;;;;;;5042284;28;20220;-54
2023/11/19 05:18:38;;;;;;;37.27;5.90;;;11.80;99.90;;;;;;5037241;28;20225;-53
2023/11/19 05:21:10;;;;;;;34.93;5.80;;;11.80;99.90;;;;;;5046893;28;20228;-55
2023/11/19 05:23:39;;;;;;;43.70;5.97;;;11.80;99.90;;;;;;5049208;28;20227;-54
2023/11/19 05:26:08;;;;;;;31.80;5.70;;;11.80;99.90;;;;;;5045645;28;20233;-53
2023/11/19 05:28:39;;;;;;;37.50;5.70;;;11.70;99.90;;;;;;5043449;28;20619;-55
2023/11/19 05:31:07;;;;;;;37.50;5.80;;;11.70;99.90;;;;;;5045327;28;20220;-54
2023/11/19 05:33:36;;;;;;;30.53;5.80;;;11.70;99.90;;;;;;5042112;28;20275;-55
2023/11/19 05:36:05;;;;;;;38.70;5.70;;;11.70;99.90;;;;;;5039376;28;20217;-55
2023/11/19 05:38:33;;;;;;;42.10;5.87;;;11.60;99.90;;;;;;5051352;28;20231;-54
2023/11/19 05:41:01;;;;;;;31.97;6.07;;;11.60;99.90;;;;;;5042294;28;20239;-54
2023/11/19 05:43:31;;;;;;;32.00;5.47;;;11.60;99.90;;;;;;5047883;28;20295;-53
2023/11/19 05:46:01;;;;;;;44.67;5.83;;;11.50;99.90;;;;;;5044463;28;20224;-53
2023/11/19 05:48:29;;;;;;;33.03;5.43;;;11.50;99.90;;;;;;5050219;28;20219;-55
2023/11/19 05:50:57;;;;;;;32.23;5.20;;;11.40;99.90;;;;;;5044031;28;20229;-53
2023/11/19 05:53:27;;;;;;;42.83;5.90;;;11.40;99.90;;;;;;5047146;28;20229;-55
2023/11/19 05:55:56;;;;;;;32.00;5.80;;;11.40;99.90;;;;;;5045796;28;20205;-53
2023/11/19 05:58:28;;;;;;;30.63;5.20;;;11.40;99.90;;;;;;5050037;28;20189;-54
2023/11/19 06:01:00;;;;;;;31.57;5.30;;;11.30;99.90;;;;;;5046794;28;20223;-59
2023/11/19 06:03:30;;;;;;;39.63;5.87;;;11.20;99.90;;;;;;5047147;28;20244;-55
2023/11/19 06:05:59;;;;;;;35.93;5.73;;;11.30;99.90;;;;;;5043847;28;20232;-58
2023/11/19 06:08:27;;;;;;;40.93;6.57;;;11.20;99.90;;;;;;5043637;28;20213;-53
2023/11/19 06:10:56;;;;;;;39.60;5.97;;;11.20;99.90;;;;;;5046652;28;20635;-53
2023/11/19 06:13:25;;;;;;;28.83;5.10;;;11.20;99.90;;;;;;5037459;28;20189;-54
2023/11/19 06:15:54;;;;;;;33.73;5.37;;;11.20;99.90;;;;;;5042599;28;20217;-53
2023/11/19 06:18:23;;;;;;;32.33;5.47;;;11.20;99.90;;;;;;5042017;28;20317;-54
2023/11/19 06:20:52;;;;;;;41.60;6.50;;;11.20;99.90;;;;;;5045983;28;20691;-55
2023/11/19 06:23:20;;;;;;;34.80;6.30;;;11.20;99.90;;;;;;5050318;28;20615;-54
2023/11/19 06:25:48;;;;;;;39.13;6.13;;;11.20;99.90;;;;;;5054580;28;20271;-55
2023/11/19 06:28:16;;;;;;;39.23;5.80;;;11.20;99.90;;;;;;5046002;28;20232;-54
2023/11/19 06:30:45;;;;;;;33.90;5.47;;;11.20;99.90;;;;;;5043049;28;20311;-54
2023/11/19 06:33:16;;;;;;;34.00;5.10;;;11.20;99.90;;;;;;5047477;28;20234;-54
2023/11/19 06:35:46;;;;;;;36.93;5.90;;;11.20;99.90;;;;;;5053360;28;20290;-54
2023/11/19 06:38:17;;;;;;;33.17;5.03;;;11.10;99.90;;;;;;5041975;28;20233;-52
2023/11/19 06:40:45;;;;;;;43.33;5.50;;;11.10;99.90;;;;;;5051722;28;20562;-54
2023/11/19 06:43:14;;;;;;;40.93;5.70;;;11.10;99.90;;;;;;5050450;28;20659;-53
2023/11/19 06:45:42;;;;;;;42.27;5.73;;;11.10;99.90;;;;;;5039304;28;20216;-53
2023/11/19 06:48:10;;;;;;;40.67;5.40;;;11.10;99.90;;;;;;5052463;28;20224;-54
2023/11/19 06:50:39;;;;;;;38.93;5.50;;;11.10;99.90;;;;;;5046164;28;20224;-53
2023/11/19 06:53:10;;;;;;;35.90;5.07;;;11.10;99.90;;;;;;5053461;28;20271;-55
2023/11/19 06:55:38;;;;;;;41.33;5.50;;;11.10;99.90;;;;;;5051856;28;20212;-52
2023/11/19 06:58:07;;;;;;;32.17;5.40;;;11.10;99.90;;;;;;5046644;28;21062;-54
2023/11/19 07:00:35;;;;;;;35.87;5.23;;;11.10;99.90;;;;;;5040474;28;20591;-52
2023/11/19 07:03:05;;;;;;;44.77;6.47;;;11.20;99.90;;;;;;5048869;28;20243;-55
2023/11/19 07:05:35;;;;;;;34.00;5.57;;;11.20;99.90;;;;;;5041259;28;20564;-54
2023/11/19 07:08:04;;;;;;;29.37;5.17;;;11.20;99.90;;;;;;5051716;28;20231;-55
2023/11/19 07:10:33;;;;;;;41.53;5.73;;;11.30;99.90;;;;;;5046399;28;20235;-55
2023/11/19 07:13:05;;;;;;;36.03;5.97;;;11.30;99.90;;;;;;5045754;28;20228;-54
2023/11/19 07:15:34;;;;;;;40.00;5.43;;;11.30;99.90;;;;;;5046713;28;20228;-54
2023/11/19 07:18:03;;;;;;;40.57;5.40;;;11.30;99.90;;;;;;5046881;28;20224;-54
2023/11/19 07:20:32;;;;;;;32.67;5.20;;;11.30;99.90;;;;;;5043885;28;20244;-53
2023/11/19 07:23:01;;;;;;;30.13;5.50;;;11.40;99.90;;;;;;5047070;28;20594;-54
2023/11/19 07:25:29;;;;;;;46.17;6.10;;;11.40;99.90;;;;;;5050376;28;20200;-54
2023/11/19 07:27:59;;;;;;;43.03;6.33;;;11.40;99.90;;;;;;5042767;28;20221;-52
2023/11/19 07:30:28;;;;;;;44.07;5.37;;;11.40;99.90;;;;;;5050402;28;20217;-55
2023/11/19 07:32:56;;;;;;;37.67;5.37;;;11.50;99.90;;;;;;5048549;28;20311;-55
2023/11/19 07:35:25;;;;;;;34.87;5.63;;;11.40;99.90;;;;;;5042895;28;20238;-55
2023/11/19 07:37:53;;;;;;;43.27;6.17;;;11.40;99.90;;;;;;5043206;28;20246;-52
2023/11/19 07:40:21;;;;;;;40.07;5.60;;;11.40;99.90;;;;;;5051946;28;20211;-54
2023/11/19 07:42:50;;;;;;;39.57;6.33;;;11.50;99.90;;;;;;5043244;28;20227;-54
2023/11/19 07:45:19;;;;;;;43.97;5.87;;;11.50;99.90;;;;;;5047925;28;20227;-56
2023/11/19 07:47:47;;;;;;;37.20;5.10;;;11.60;99.90;;;;;;5042355;28;20213;-53
2023/11/19 07:50:19;;;;;;;38.30;6.03;;;11.70;99.90;;;;;;5047789;28;20323;-54
2023/11/19 07:52:47;;;;;;;40.00;5.83;;;11.70;99.90;;;;;;5044910;28;20200;-53
2023/11/19 07:55:15;;;;;;;43.47;6.33;;;11.80;99.90;;;;;;5051249;28;20760;-55
2023/11/19 07:57:43;;;;;;;38.53;6.33;;;11.90;99.90;;;;;;5042193;28;20228;-54
2023/11/19 08:00:13;;;;;;;43.97;6.83;;;11.90;99.90;;;;;;5048095;28;20231;-54
2023/11/19 08:02:43;;;;;;;33.53;5.63;;;12.00;99.90;;;;;;5040568;28;20217;-55
2023/11/19 08:05:12;;;;;;;37.90;7.23;;;12.10;99.90;;;;;;5037302;28;20229;-53
2023/11/19 08:07:41;;;;;;;33.33;5.97;;;12.00;99.90;;;;;;5049137;28;20189;-53
2023/11/19 08:10:10;;;;;;;39.23;5.87;;;12.10;99.90;;;;;;5050031;28;20294;-55
2023/11/19 08:12:39;;;;;;;38.30;5.63;;;12.00;99.90;;;;;;5044515;28;20224;-54
2023/11/19 08:15:08;;;;;;;34.83;5.90;;;12.00;99.90;;;;;;5045410;28;20224;-53
2023/11/19 08:17:36;;;;;;;37.63;5.90;;;12.00;99.90;;;;;;5046083;28;20233;-54
2023/11/19 08:20:10;;;;;;;42.23;6.97;;;12.00;99.90;;;;;;5045950;28;20220;-55
2023/11/19 08:22:39;;;;;;;32.00;5.50;;;12.00;99.90;;;;;;5042862;28;20691;-54
2023/11/19 08:25:08;;;;;;;37.03;6.10;;;12.00;99.90;;;;;;5048056;28;20305;-52
2023/11/19 08:27:36;;;;;;;31.73;5.50;;;11.90;99.90;;;;;;5043472;28;20223;-56
2023/11/19 08:30:06;;;;;;;35.87;5.70;;;11.90;99.90;;;;;;5043311;28;20760;-54
2023/11/19 08:32:35;;;;;;;35.57;5.63;;;11.90;99.90;;;;;;5048916;28;20220;-55
2023/11/19 08:35:06;;;;;;;28.63;5.00;;;12.00;99.90;;;;;;5047305;28;20225;-53
2023/11/19 08:37:36;;;;;;;34.83;5.27;;;11.90;99.90;;;;;;5046514;28;20251;-55
2023/11/19 08:40:05;;;;;;;33.30;4.93;;;11.90;99.90;;;;;;5048786;28;20222;-52
2023/11/19 08:42:33;;;;;;;28.87;4.93;;;11.80;99.90;;;;;;5044550;28;20714;-54
2023/11/19 08:45:02;;;;;;;28.23;5.10;;;11.80;99.90;;;;;;5046279;28;20571;-54
2023/11/19 08:47:30;;;;;;;31.90;4.53;;;11.80;99.90;;;;;;5043584;28;20235;-51
2023/11/19 08:49:58;;;;;;;29.87;4.93;;;11.90;99.90;;;;;;5049070;28;20209;-55
2023/11/19 08:52:31;;;;;;;29.93;5.20;;;12.00;99.90;;;;;;5047143;28;20184;-54
2023/11/19 08:55:02;;;;;;;25.37;4.93;;;12.00;99.90;;;;;;5046182;28;20220;-55
2023/11/19 08:57:31;;;;;;;28.23;5.70;;;12.10;99.90;;;;;;5044650;28;20294;-55
2023/11/19 08:59:59;;;;;;;26.07;5.17;;;12.10;99.90;;;;;;5049008;28;20225;-52
2023/11/19 09:02:27;;;;;;;39.13;6.83;;;12.10;99.90;;;;;;5044734;28;20216;-53
2023/11/19 09:04:56;;;;;;;26.07;5.03;;;12.20;99.90;;;;;;5047903;28;20288;-55
2023/11/19 09:07:24;;;;;;;29.37;4.67;;;12.20;99.90;;;;;;5049128;28;20185;-51
2023/11/19 09:09:54;;;;;;;32.80;4.73;;;12.30;99.90;;;;;;5049151;28;20235;-53
2023/11/19 09:12:22;;;;;;;23.73;4.63;;;12.40;99.90;;;;;;5046167;28;20714;-55
2023/11/19 09:14:50;;;;;;;28.03;5.40;;;12.50;99.90;;;;;;5043903;28;20212;-54
2023/11/19 09:17:18;;;;;;;32.77;5.00;;;12.60;99.90;;;;;;5042902;28;20482;-54
2023/11/19 09:19:46;;;;;;;29.93;4.83;;;12.80;99.90;;;;;;5046725;28;20640;-55
2023/11/19 09:22:15;;;;;;;32.67;5.23;;;12.90;99.90;;;;;;5041911;28;20197;-54
2023/11/19 09:24:45;;;;;;;24.13;4.90;;;13.00;99.90;;;;;;5044416;28;20224;-53
2023/11/19 09:27:15;;;;;;;29.47;4.70;;;13.20;99.90;;;;;;5047330;28;20225;-53
2023/11/19 09:29:45;;;;;;;32.23;4.10;;;13.40;99.90;;;;;;5041726;28;20221;-52
2023/11/19 09:32:14;;;;;;;22.30;4.47;;;13.40;99.90;;;;;;5046084;28;20217;-53
2023/11/19 09:34:42;;;;;;;23.67;4.30;;;13.40;99.90;;;;;;5046002;28;20217;-53
2023/11/19 09:37:10;;;;;;;24.60;4.47;;;13.40;99.90;;;;;;5048867;28;20636;-55
2023/11/19 09:39:43;;;;;;;20.93;3.63;;;13.50;99.90;;;;;;5046943;28;20212;-54
2023/11/19 09:42:11;;;;;;;25.87;3.80;;;13.70;99.90;;;;;;5045683;28;20848;-53
2023/11/19 09:44:43;;;;;;;12.43;3.33;;;13.80;99.90;;;;;;5037822;28;20222;-53
2023/11/19 09:47:13;;;;;;;16.20;4.13;;;13.70;99.90;;;;;;5044966;28;20275;-54
2023/11/19 09:49:41;;;;;;;20.63;3.97;;;13.70;99.90;;;;;;5043930;28;20275;-54
2023/11/19 09:52:10;;;;;;;21.40;4.17;;;13.70;99.90;;;;;;5020747;28;20267;-54
2023/11/19 09:54:38;;;;;;;18.40;3.83;;;13.70;99.90;;;;;;5023700;28;20234;-54
2023/11/19 09:57:09;;;;;;;25.37;4.80;;;13.70;99.90;;;;;;5025716;28;20542;-54
2023/11/19 09:59:39;;;;;;;23.13;4.90;;;13.70;99.90;;;;;;5030494;28;20244;-54
2023/11/19 10:02:09;;;;;;;21.77;4.10;;;13.80;99.90;;;;;;5027062;28;20244;-55
2023/11/19 10:04:40;;;;;;;23.77;4.10;;;13.90;99.90;;;;;;5027264;28;20592;-55
2023/11/19 10:07:09;;;;;;;21.60;4.03;;;13.90;99.90;;;;;;5049517;28;20217;-54
2023/11/19 10:09:37;;;;;;;29.70;4.63;;;13.90;99.90;;;;;;5050376;28;20224;-53
2023/11/19 10:12:06;;;;;;;23.43;4.07;;;13.70;99.90;;;;;;5041110;28;20216;-56
2023/11/19 10:14:39;;;;;;;23.73;4.37;;;13.50;99.90;;;;;;5042439;28;20671;-53
2023/11/19 10:17:10;;;;;;;30.57;4.73;;;13.30;99.90;;;;;;5045788;28;20251;-55
2023/11/19 10:19:41;;;;;;;23.53;4.80;;;13.20;99.90;;;;;;5046370;28;20288;-54
2023/11/19 10:22:09;;;;;;;33.17;5.30;;;13.10;99.90;;;;;;5048029;28;20291;-51
2023/11/19 10:24:40;;;;;;;24.43;4.37;;;13.10;99.90;;;;;;5049691;28;20744;-54
2023/11/19 10:27:16;;;;;;;28.43;5.37;;;13.00;99.90;;;;;;5048618;28;20221;-55
2023/11/19 10:29:46;;;;;;;23.03;4.33;;;12.90;99.90;;;;;;5039296;28;20248;-53
2023/11/19 10:32:16;;;;;;;28.40;4.80;;;12.90;99.90;;;;;;5043798;28;20249;-54
2023/11/19 10:35:05;;;;;;;28.07;5.03;;;12.80;99.90;;;;;;5023170;28;20197;-54
2023/11/19 10:37:35;;;;;;;30.57;4.67;;;12.90;99.90;;;;;;5029478;28;20853;-54
2023/11/19 10:40:10;;;;;;;17.47;4.07;;;12.90;99.90;;;;;;5025507;28;20245;-54
2023/11/19 10:42:38;;;;;;;19.00;3.97;;;13.10;99.90;;;;;;5017959;28;20228;-54
2023/11/19 10:45:23;;;;;;;31.77;4.53;;;13.30;99.90;;;;;;5028054;28;20312;-51
2023/11/19 10:47:56;;;;;;;26.97;4.33;;;13.50;99.90;;;;;;5027675;28;20568;-54
2023/11/19 10:50:25;;;;;;;24.50;4.40;;;13.70;99.90;;;;;;5022093;28;20229;-53
2023/11/19 10:52:58;;;;;;;21.20;4.67;;;13.90;99.90;;;;;;5029864;28;20209;-57
2023/11/19 10:55:30;;;;;;;24.30;4.27;;;14.00;99.90;;;;;;5028948;28;20285;-54
2023/11/19 10:58:01;;;;;;;22.83;4.60;;;14.10;99.90;;;;;;5025136;28;20228;-54
2023/11/19 11:00:31;;;;;;;16.47;4.03;;;14.10;99.90;;;;;;5018794;28;20233;-55
2023/11/19 11:03:06;;;;;;;33.10;4.80;;;14.00;99.90;;;;;;5024806;28;20617;-54
2023/11/19 11:05:35;;;;;;;22.03;3.70;;;14.00;99.90;;;;;;5031527;28;20282;-54
2023/11/19 11:08:06;;;;;;;20.00;4.10;;;14.00;99.90;;;;;;5025541;28;21248;-54
2023/11/19 11:10:40;;;;;;;15.17;4.10;;;14.00;99.90;;;;;;5025755;28;20193;-53
2023/11/19 11:13:27;;;;;;;16.93;3.83;;;14.00;99.90;;;;;;5020909;28;20653;-53
2023/11/19 11:15:57;;;;;;;26.27;4.87;;;14.00;99.90;;;;;;5023664;28;20227;-52
2023/11/19 11:18:28;;;;;;;17.10;4.07;;;14.00;99.90;;;;;;5026654;28;20231;-55
2023/11/19 11:21:00;;;;;;;22.83;4.30;;;14.00;99.90;;;;;;5028098;28;20355;-55
2023/11/19 11:23:54;;;;;;;27.70;4.93;;;14.00;99.90;;;;;;5024720;28;20227;-56
2023/11/19 11:26:44;;;;;;;23.50;4.53;;;14.00;99.90;;;;;;5027198;28;20230;-55
2023/11/19 11:29:22;;;;;;;24.07;4.23;;;13.90;99.90;;;;;;5026015;28;20234;-55
2023/11/19 11:32:01;;;;;;;25.17;4.47;;;14.00;99.90;;;;;;5027991;28;20217;-54
2023/11/19 11:34:47;;;;;;;28.27;5.07;;;14.10;99.90;;;;;;5032538;28;20197;-54
2023/11/19 11:37:23;;;;;;;21.77;4.17;;;14.10;99.90;;;;;;5019897;28;20681;-53
2023/11/19 11:39:51;;;;;;;25.43;4.57;;;14.00;99.90;;;;;;5025364;28;20217;-54
2023/11/19 11:42:34;;;;;;;17.10;4.43;;;13.90;99.90;;;;;;5028951;28;20770;-55
2023/11/19 11:45:07;;;;;;;18.83;4.30;;;13.90;99.90;;;;;;5025179;28;20248;-55
2023/11/19 11:48:19;;;;;;;21.33;4.47;;;14.10;99.90;;;;;;5031626;28;20229;-54
2023/11/19 11:50:54;;;;;;;20.67;3.80;;;14.20;99.90;;;;;;5025901;28;20596;-54
2023/11/19 11:53:24;;;;;;;23.73;5.07;;;14.30;99.90;;;;;;5029649;28;20346;-56
2023/11/19 11:56:02;;;;;;;26.30;4.40;;;14.40;99.90;;;;;;5021151;28;20229;-56
2023/11/19 11:58:37;;;;;;;23.80;3.70;;;14.40;99.90;;;;;;5021491;28;21456;-54
2023/11/19 12:01:05;;;;;;;22.00;3.80;;;14.20;99.90;;;;;;5026927;28;20692;-52
2023/11/19 12:03:35;;;;;;;24.87;4.83;;;14.00;99.90;;;;;;5022007;28;20218;-53
2023/11/19 12:06:05;;;;;;;23.00;4.27;;;13.80;99.90;;;;;;5027695;28;20225;-54
2023/11/19 12:08:36;;;;;;;22.90;4.40;;;13.70;99.90;;;;;;5023575;28;20227;-54
2023/11/19 12:11:21;;;;;;;18.40;3.97;;;13.70;99.90;;;;;;5025296;28;20229;-53
2023/11/19 12:13:58;;;;;;;22.53;4.03;;;13.60;99.90;;;;;;5022500;28;20208;-55
2023/11/19 12:16:27;;;;;;;20.53;4.20;;;13.50;99.90;;;;;;5026574;28;20288;-54
2023/11/19 12:18:57;;;;;;;23.17;3.57;;;13.50;99.90;;;;;;5027844;28;20224;-54
2023/11/19 12:21:33;;;;;;;21.77;3.73;;;13.40;99.90;;;;;;5024810;28;20240;-53
2023/11/19 12:24:07;;;;;;;22.60;4.50;;;13.20;99.90;;;;;;5025496;28;20245;-55
2023/11/19 12:26:38;;;;;;;25.50;3.60;;;13.10;99.90;;;;;;5027481;28;20325;-55
2023/11/19 12:29:07;;;;;;;18.87;3.90;;;13.10;99.90;;;;;;5021825;28;20229;-53
2023/11/19 12:31:37;;;;;;;18.20;3.80;;;13.20;99.90;;;;;;5026753;28;20199;-56
2023/11/19 12:34:11;;;;;;;24.13;4.73;;;13.20;99.90;;;;;;5024031;28;20226;-54
2023/11/19 12:36:43;;;;;;;24.50;4.43;;;13.30;99.90;;;;;;5019784;28;20264;-54
2023/11/19 12:39:14;;;;;;;29.80;4.87;;;13.40;99.90;;;;;;5024440;28;20256;-54
2023/11/19 12:41:52;;;;;;;26.23;4.50;;;13.40;99.90;;;;;;5020991;28;20573;-55
2023/11/19 12:44:22;;;;;;;22.93;4.20;;;13.30;99.90;;;;;;5022894;28;20233;-55
2023/11/19 12:47:06;;;;;;;33.60;5.10;;;13.30;99.90;;;;;;5028368;28;20190;-55
2023/11/19 12:49:35;;;;;;;32.73;5.20;;;13.20;99.90;;;;;;5028392;28;20193;-54
2023/11/19 12:52:13;;;;;;;25.10;4.70;;;13.20;99.90;;;;;;5023228;28;20226;-55